Time;durP1;ratioP1;P1;durP2;ratioP2;P2;SDS_P1;SDS_P2;PMS_P1;PMS_P2;Temp;Humidity;BMP_temperature;BMP_pressure;BME280_temperature;BME280_humidity;BME280_pressure;Samples;Min_cycle;Max_cycle;Signal;HPM_P1;HPM_P2
2022/07/02 00:00:09;;;;;;;3.47;1.83;;;24.20;66.90;;;;;;6246279;23;20394;-69
2022/07/02 00:02:44;;;;;;;1.77;1.57;;;24.20;66.90;;;;;;6256652;23;20402;-69
2022/07/02 00:05:17;;;;;;;2.37;1.73;;;24.20;67.00;;;;;;6169909;23;20476;-69
2022/07/02 00:07:43;;;;;;;3.70;1.73;;;24.20;67.00;;;;;;6246431;23;20412;-68
2022/07/02 00:10:16;;;;;;;2.03;1.80;;;24.20;67.10;;;;;;6219476;23;20393;-68
2022/07/02 00:12:46;;;;;;;3.20;1.80;;;24.20;67.10;;;;;;6219108;23;20927;-68
2022/07/02 00:15:12;;;;;;;3.10;1.93;;;24.10;67.00;;;;;;6246290;23;20374;-68
2022/07/02 00:17:41;;;;;;;1.83;1.40;;;24.10;67.00;;;;;;6194364;23;20461;-68
2022/07/02 00:20:10;;;;;;;3.67;1.37;;;24.10;67.00;;;;;;6194391;23;20402;-69
2022/07/02 00:22:38;;;;;;;1.83;1.73;;;24.10;67.00;;;;;;6219622;23;20454;-69
2022/07/02 00:25:11;;;;;;;3.00;1.70;;;24.10;67.10;;;;;;6195104;23;20440;-68
2022/07/02 00:27:42;;;;;;;1.83;1.73;;;24.10;67.10;;;;;;6219460;23;20804;-68
2022/07/02 00:30:14;;;;;;;4.03;1.97;;;24.10;67.20;;;;;;6219457;23;20374;-68
2022/07/02 00:32:42;;;;;;;2.43;1.90;;;24.10;67.20;;;;;;6194314;23;20446;-68
2022/07/02 00:35:13;;;;;;;2.33;1.90;;;24.00;67.10;;;;;;6246027;23;20421;-69
2022/07/02 00:37:39;;;;;;;3.63;1.83;;;24.00;67.20;;;;;;6219047;23;20420;-69
2022/07/02 00:40:11;;;;;;;2.37;1.50;;;24.00;67.20;;;;;;6194199;23;20396;-69
2022/07/02 00:42:37;;;;;;;2.20;1.73;;;23.90;67.10;;;;;;6219166;23;20943;-69
2022/07/02 00:45:05;;;;;;;3.17;2.10;;;23.90;67.20;;;;;;6244262;23;20449;-69
2022/07/02 00:47:33;;;;;;;2.40;1.60;;;23.90;67.20;;;;;;6193755;23;20390;-69
2022/07/02 00:50:06;;;;;;;2.60;1.73;;;23.90;67.20;;;;;;6194507;23;20374;-68
2022/07/02 00:52:37;;;;;;;2.50;2.00;;;23.90;67.30;;;;;;6219861;23;20463;-69
2022/07/02 00:55:03;;;;;;;2.60;1.80;;;23.90;67.30;;;;;;6219298;23;20724;-69
2022/07/02 00:57:34;;;;;;;2.03;1.70;;;23.80;67.30;;;;;;6219189;23;20852;-69
2022/07/02 01:00:03;;;;;;;2.87;1.70;;;23.80;67.30;;;;;;6218728;23;20410;-69
2022/07/02 01:02:34;;;;;;;2.57;1.83;;;23.80;67.30;;;;;;6188982;23;20731;-68
2022/07/02 01:05:03;;;;;;;3.00;1.90;;;23.80;67.30;;;;;;6218575;23;20414;-69
2022/07/02 01:07:30;;;;;;;6.90;2.10;;;23.80;67.30;;;;;;6245753;23;20359;-69
2022/07/02 01:10:19;;;;;;;2.73;2.07;;;23.80;67.40;;;;;;6245662;23;20441;-68
2022/07/02 01:12:49;;;;;;;2.10;1.77;;;23.80;67.40;;;;;;6219016;23;20421;-69
2022/07/02 01:15:16;;;;;;;2.27;1.77;;;23.70;67.30;;;;;;6219002;23;20406;-69
2022/07/02 01:17:48;;;;;;;3.03;2.00;;;23.70;67.40;;;;;;6219480;23;20367;-68
2022/07/02 01:20:19;;;;;;;2.70;1.87;;;23.70;67.40;;;;;;6245792;23;20372;-68
2022/07/02 01:22:47;;;;;;;2.73;1.57;;;23.70;67.40;;;;;;6218937;23;20771;-68
2022/07/02 01:25:16;;;;;;;2.13;1.80;;;23.70;67.50;;;;;;6245845;23;20398;-69
2022/07/02 01:27:44;;;;;;;4.60;2.17;;;23.60;67.40;;;;;;6218966;23;20398;-68
2022/07/02 01:30:11;;;;;;;2.27;2.00;;;23.60;67.40;;;;;;6245817;23;20370;-68
2022/07/02 01:32:39;;;;;;;5.07;1.70;;;23.60;67.50;;;;;;6245597;23;20696;-69
2022/07/02 01:35:09;;;;;;;2.90;2.20;;;23.60;67.50;;;;;;6218939;23;20391;-68
2022/07/02 01:37:39;;;;;;;2.70;1.80;;;23.60;67.60;;;;;;6219091;23;20425;-69
2022/07/02 01:40:06;;;;;;;2.07;1.87;;;23.60;67.60;;;;;;6193991;23;20379;-68
2022/07/02 01:42:33;;;;;;;2.90;1.80;;;23.50;67.50;;;;;;6193933;23;20916;-69
2022/07/02 01:45:02;;;;;;;2.20;2.00;;;23.50;67.50;;;;;;6169024;23;20825;-69
2022/07/02 01:47:28;;;;;;;3.17;1.83;;;23.50;67.50;;;;;;6245801;23;20822;-69
2022/07/02 01:49:56;;;;;;;5.13;1.70;;;23.50;67.50;;;;;;6245688;23;20402;-69
2022/07/02 01:52:27;;;;;;;2.53;2.10;;;23.50;67.60;;;;;;6193539;23;20453;-69
2022/07/02 01:54:55;;;;;;;1.90;1.70;;;23.50;67.70;;;;;;6245141;23;20773;-68
2022/07/02 01:57:22;;;;;;;2.10;1.50;;;23.50;67.70;;;;;;6219068;23;20362;-69
2022/07/02 01:59:48;;;;;;;4.13;1.87;;;23.40;67.60;;;;;;6218993;23;20397;-69
2022/07/02 02:02:16;;;;;;;4.60;1.87;;;23.40;67.60;;;;;;6218943;23;20379;-69
2022/07/02 02:04:43;;;;;;;1.80;1.70;;;23.40;67.60;;;;;;6245723;23;20413;-68
2022/07/02 02:07:12;;;;;;;2.10;1.80;;;23.40;67.60;;;;;;6195237;23;20362;-69
2022/07/02 02:09:38;;;;;;;1.77;1.60;;;23.40;67.70;;;;;;6245705;23;20435;-68
2022/07/02 02:12:09;;;;;;;2.40;1.90;;;23.40;67.70;;;;;;6220692;23;20867;-69
2022/07/02 02:14:38;;;;;;;2.83;1.73;;;23.30;67.60;;;;;;6170791;23;20378;-69
2022/07/02 02:17:11;;;;;;;2.93;1.70;;;23.30;67.60;;;;;;6220533;23;20405;-69
2022/07/02 02:19:37;;;;;;;2.00;1.80;;;23.30;67.70;;;;;;6247581;23;20409;-69
2022/07/02 02:22:06;;;;;;;2.30;2.10;;;23.30;67.70;;;;;;6220547;23;20385;-68
2022/07/02 02:24:34;;;;;;;2.07;1.80;;;23.20;67.60;;;;;;6195425;23;20438;-69
2022/07/02 02:27:05;;;;;;;3.47;2.33;;;23.20;67.60;;;;;;6247665;23;20449;-69
2022/07/02 02:29:35;;;;;;;2.13;1.93;;;23.20;67.60;;;;;;6220859;23;20421;-69
2022/07/02 02:32:01;;;;;;;2.10;1.90;;;23.20;67.60;;;;;;6247497;23;20401;-69
2022/07/02 02:34:32;;;;;;;2.37;1.90;;;23.20;67.60;;;;;;6195218;23;20497;-69
2022/07/02 02:37:01;;;;;;;4.70;1.90;;;23.20;67.60;;;;;;6247304;23;20413;-69
2022/07/02 02:39:29;;;;;;;2.50;2.10;;;23.20;67.70;;;;;;6195334;23;20913;-69
2022/07/02 02:41:58;;;;;;;3.33;2.33;;;23.20;67.70;;;;;;6220148;23;20511;-69
2022/07/02 02:44:29;;;;;;;2.93;1.77;;;23.10;67.60;;;;;;6247104;23;20493;-68
2022/07/02 02:46:58;;;;;;;2.63;2.43;;;23.10;67.60;;;;;;6247225;23;20371;-68
2022/07/02 02:49:24;;;;;;;3.47;2.07;;;23.10;67.70;;;;;;6220476;23;20390;-69
2022/07/02 02:51:52;;;;;;;2.70;1.80;;;23.10;67.70;;;;;;6220534;23;20881;-69
2022/07/02 02:54:18;;;;;;;3.50;2.00;;;23.10;67.70;;;;;;6220098;23;20401;-69
2022/07/02 02:56:44;;;;;;;2.70;1.63;;;23.10;67.70;;;;;;6195115;23;20756;-69
2022/07/02 02:59:13;;;;;;;1.70;1.60;;;23.00;67.60;;;;;;6220115;23;20406;-69
2022/07/02 03:01:41;;;;;;;2.97;2.30;;;23.00;67.70;;;;;;6220376;23;20370;-69
2022/07/02 03:04:12;;;;;;;2.73;2.00;;;23.00;67.70;;;;;;6220114;23;20408;-68
2022/07/02 03:06:40;;;;;;;2.10;1.90;;;23.00;67.70;;;;;;6220682;23;20386;-69
2022/07/02 03:09:09;;;;;;;3.37;2.23;;;23.00;67.70;;;;;;6246976;23;20729;-69
2022/07/02 03:11:37;;;;;;;5.80;1.80;;;23.00;67.80;;;;;;6246842;23;20880;-69
2022/07/02 03:14:03;;;;;;;2.57;2.07;;;22.90;67.60;;;;;;6220235;23;20406;-68
2022/07/02 03:16:29;;;;;;;2.37;1.87;;;22.90;67.60;;;;;;6246962;23;20398;-69
2022/07/02 03:18:57;;;;;;;2.43;1.93;;;22.90;67.60;;;;;;6245272;23;20410;-68
2022/07/02 03:21:23;;;;;;;2.10;1.80;;;22.90;67.60;;;;;;6246726;23;20374;-68
2022/07/02 03:23:49;;;;;;;2.17;1.97;;;22.90;67.60;;;;;;6219777;23;20235;-69
2022/07/02 03:26:17;;;;;;;2.73;2.10;;;22.80;67.50;;;;;;6246792;23;20390;-68
2022/07/02 03:28:50;;;;;;;3.07;2.27;;;22.90;67.60;;;;;;6191438;23;20497;-68
2022/07/02 03:31:16;;;;;;;3.00;2.23;;;22.80;67.60;;;;;;6195057;23;20394;-68
2022/07/02 03:33:42;;;;;;;2.67;2.47;;;22.80;68.50;;;;;;6220184;23;20417;-69
2022/07/02 03:36:13;;;;;;;3.10;2.20;;;22.80;67.60;;;;;;6220168;23;20880;-69
2022/07/02 03:38:42;;;;;;;3.50;1.90;;;22.80;67.70;;;;;;6219883;23;20873;-69
2022/07/02 03:41:08;;;;;;;3.13;2.00;;;22.80;67.70;;;;;;6194764;23;20390;-68
2022/07/02 03:43:35;;;;;;;2.83;2.50;;;22.80;67.70;;;;;;6245073;23;20465;-69
2022/07/02 03:46:04;;;;;;;2.00;1.77;;;22.70;67.60;;;;;;6194982;23;20822;-69
2022/07/02 03:48:35;;;;;;;3.97;2.30;;;22.70;67.60;;;;;;6220223;23;20418;-68
2022/07/02 03:51:03;;;;;;;2.70;2.33;;;22.70;67.60;;;;;;6219687;23;20758;-69
2022/07/02 03:53:29;;;;;;;4.73;2.10;;;22.70;67.60;;;;;;6194758;23;20390;-68
2022/07/02 03:55:55;;;;;;;1.93;1.73;;;22.60;67.50;;;;;;6241974;23;20421;-68
2022/07/02 03:58:21;;;;;;;3.17;2.07;;;22.70;67.60;;;;;;6246535;23;20395;-68
2022/07/02 04:00:48;;;;;;;2.30;2.10;;;22.60;67.50;;;;;;6245042;23;20907;-69
2022/07/02 04:03:13;;;;;;;3.23;2.10;;;22.60;67.60;;;;;;6219762;23;20858;-69
2022/07/02 04:05:39;;;;;;;2.50;2.10;;;22.60;67.60;;;;;;6246487;23;20429;-69
2022/07/02 04:08:07;;;;;;;2.90;2.13;;;22.60;67.60;;;;;;6194754;23;20454;-75
2022/07/02 04:10:37;;;;;;;3.17;2.10;;;22.60;67.60;;;;;;6165202;23;20393;-75
2022/07/02 04:13:04;;;;;;;3.13;2.50;;;22.50;67.60;;;;;;6214768;23;20467;-75
2022/07/02 04:15:32;;;;;;;2.73;2.33;;;22.50;67.60;;;;;;6189583;23;20741;-74
2022/07/02 04:18:00;;;;;;;7.00;2.67;;;22.50;67.60;;;;;;6164234;23;20398;-75
2022/07/02 04:20:29;;;;;;;2.70;2.10;;;22.50;67.60;;;;;;6188157;23;20374;-76
2022/07/02 04:22:55;;;;;;;4.17;2.20;;;22.50;67.70;;;;;;6187628;23;20372;-76
2022/07/02 04:25:21;;;;;;;4.13;2.10;;;22.50;67.80;;;;;;6162618;23;20458;-76
2022/07/02 04:27:48;;;;;;;2.43;2.10;;;22.50;67.80;;;;;;6187646;23;20372;-77
2022/07/02 04:30:14;;;;;;;2.90;2.17;;;22.40;67.80;;;;;;6214135;23;20414;-77
2022/07/02 04:32:40;;;;;;;5.87;2.07;;;22.40;67.80;;;;;;6162638;23;20421;-76
2022/07/02 04:35:06;;;;;;;2.00;1.83;;;22.40;67.90;;;;;;6188021;23;20843;-76
2022/07/02 04:37:33;;;;;;;5.03;2.43;;;22.40;67.90;;;;;;6187306;23;20522;-77
2022/07/02 04:40:07;;;;;;;4.30;2.13;;;22.40;68.00;;;;;;6162640;23;20750;-76
2022/07/02 04:42:34;;;;;;;3.50;2.03;;;22.40;68.00;;;;;;6187545;23;20410;-77
2022/07/02 04:45:02;;;;;;;2.23;2.03;;;22.40;68.00;;;;;;6187446;23;20764;-76
2022/07/02 04:47:31;;;;;;;4.17;2.67;;;22.40;68.20;;;;;;6212375;23;20407;-77
2022/07/02 04:49:57;;;;;;;4.57;2.50;;;22.30;68.30;;;;;;6187450;23;20890;-76
2022/07/02 04:52:25;;;;;;;3.50;2.10;;;22.40;68.40;;;;;;6213557;23;20373;-76
2022/07/02 04:54:51;;;;;;;4.33;2.33;;;22.30;68.40;;;;;;6187548;23;20473;-76
2022/07/02 04:57:19;;;;;;;3.10;2.80;;;22.30;68.50;;;;;;6186043;23;20370;-77
2022/07/02 04:59:45;;;;;;;2.90;2.60;;;22.30;68.50;;;;;;6162581;23;20407;-77
2022/07/02 05:02:14;;;;;;;2.90;2.10;;;22.30;68.60;;;;;;6214776;23;20371;-76
2022/07/02 05:04:43;;;;;;;3.20;2.10;;;22.30;68.80;;;;;;6215215;23;20410;-76
2022/07/02 05:07:09;;;;;;;2.67;2.20;;;22.30;68.80;;;;;;6138544;23;20446;-74
2022/07/02 05:09:40;;;;;;;3.00;1.70;;;22.30;69.00;;;;;;6214352;23;20414;-74
2022/07/02 05:12:07;;;;;;;3.13;1.97;;;22.30;69.10;;;;;;6188530;23;20371;-76
2022/07/02 05:14:33;;;;;;;3.20;2.43;;;22.20;69.10;;;;;;6214975;23;20366;-75
2022/07/02 05:16:59;;;;;;;4.33;2.70;;;22.20;69.20;;;;;;6188780;23;20454;-75
2022/07/02 05:19:25;;;;;;;2.50;2.30;;;22.20;69.30;;;;;;6184842;23;20461;-75
2022/07/02 05:21:53;;;;;;;3.67;2.13;;;22.20;69.30;;;;;;6210913;23;20394;-75
2022/07/02 05:24:19;;;;;;;5.10;2.50;;;22.20;69.40;;;;;;6184528;23;20419;-75
2022/07/02 05:26:50;;;;;;;2.43;2.10;;;22.20;69.50;;;;;;6184890;23;20409;-74
2022/07/02 05:29:16;;;;;;;5.10;2.53;;;22.20;69.40;;;;;;6211320;23;20399;-74
2022/07/02 05:31:42;;;;;;;2.50;2.10;;;22.20;69.50;;;;;;6211363;23;20685;-75
2022/07/02 05:34:11;;;;;;;2.20;1.60;;;22.20;69.60;;;;;;6160538;23;20854;-73
2022/07/02 05:36:39;;;;;;;6.00;2.00;;;22.20;69.60;;;;;;6210014;23;20375;-74
2022/07/02 05:39:08;;;;;;;2.53;1.70;;;22.20;69.60;;;;;;6208887;23;20407;-74
2022/07/02 05:41:34;;;;;;;2.10;1.90;;;22.20;69.60;;;;;;6211137;23;20390;-74
2022/07/02 05:44:00;;;;;;;2.27;1.80;;;22.10;69.60;;;;;;6210569;23;20752;-74
2022/07/02 05:46:28;;;;;;;4.50;2.03;;;22.10;69.70;;;;;;6186145;23;20371;-74
2022/07/02 05:48:57;;;;;;;2.40;1.80;;;22.10;69.60;;;;;;6212957;23;20575;-74
2022/07/02 05:51:25;;;;;;;2.27;2.07;;;22.10;69.70;;;;;;6162057;23;20395;-74
2022/07/02 05:53:54;;;;;;;3.80;2.30;;;22.10;69.80;;;;;;6186604;23;20370;-74
2022/07/02 05:56:20;;;;;;;2.27;1.80;;;22.10;69.90;;;;;;6161260;23;20399;-74
2022/07/02 05:58:48;;;;;;;1.80;1.53;;;22.10;69.90;;;;;;6186367;23;20550;-73
2022/07/02 06:01:17;;;;;;;3.00;1.90;;;22.10;70.00;;;;;;6215974;23;20757;-74
2022/07/02 06:03:43;;;;;;;2.40;1.60;;;22.10;70.00;;;;;;6189115;23;20457;-74
2022/07/02 06:08:56;;;;;;;2.20;1.80;;;22.10;70.00;;;;;;6188639;23;20514;-74
2022/07/02 06:11:22;;;;;;;2.10;1.83;;;22.10;70.00;;;;;;6216184;23;20405;-74
2022/07/02 06:13:51;;;;;;;13.00;3.23;;;22.10;70.10;;;;;;6189843;23;20383;-75
2022/07/02 06:16:20;;;;;;;48.23;6.33;;;22.10;70.50;;;;;;6189599;23;20363;-75
2022/07/02 06:18:48;;;;;;;26.53;4.60;;;22.00;72.00;;;;;;6189726;23;20394;-75
2022/07/02 06:21:14;;;;;;;15.23;3.80;;;22.00;73.00;;;;;;6216955;23;20816;-75
2022/07/02 06:23:42;;;;;;;29.97;4.60;;;21.90;73.00;;;;;;6214227;23;20391;-75
2022/07/02 06:26:11;;;;;;;14.93;2.77;;;21.90;72.80;;;;;;6215628;23;20375;-75
2022/07/02 06:28:39;;;;;;;18.13;3.20;;;21.90;72.90;;;;;;6189974;23;20878;-74
2022/07/02 06:31:10;;;;;;;13.00;3.30;;;21.90;73.80;;;;;;6216027;23;20450;-73
2022/07/02 06:33:36;;;;;;;14.77;3.03;;;21.90;72.90;;;;;;6215602;23;20421;-74
2022/07/02 06:36:10;;;;;;;18.57;2.90;;;21.90;72.80;;;;;;6188796;23;20439;-72
2022/07/02 06:38:40;;;;;;;9.40;3.17;;;21.90;72.60;;;;;;6164137;23;20452;-72
2022/07/02 06:43:56;;;;;;;10.07;3.60;;;21.90;72.30;;;;;;6164617;23;20504;-75
2022/07/02 06:46:24;;;;;;;5.33;2.60;;;21.90;72.20;;;;;;6215132;23;20631;-73
2022/07/02 06:48:53;;;;;;;8.27;2.73;;;21.90;72.10;;;;;;6189428;23;20490;-74
2022/07/02 06:51:21;;;;;;;14.13;2.33;;;21.90;72.00;;;;;;6216091;23;20136;-73
2022/07/02 06:53:48;;;;;;;7.90;2.73;;;21.90;71.90;;;;;;6215996;23;20453;-73
2022/07/02 06:56:14;;;;;;;8.47;2.50;;;21.90;71.80;;;;;;6164290;23;20461;-74
2022/07/02 06:58:40;;;;;;;5.67;2.40;;;21.90;71.60;;;;;;6188962;23;20402;-74
2022/07/02 07:01:06;;;;;;;3.67;2.50;;;21.90;71.50;;;;;;6215334;23;20367;-74
2022/07/02 07:03:32;;;;;;;4.80;2.30;;;22.00;71.50;;;;;;6188820;23;20711;-74
2022/07/02 07:05:58;;;;;;;4.77;2.47;;;22.00;71.40;;;;;;6188687;23;20374;-74
2022/07/02 07:08:29;;;;;;;4.10;2.10;;;22.00;71.20;;;;;;6164182;23;20426;-74
2022/07/02 07:10:56;;;;;;;5.90;2.07;;;22.00;71.20;;;;;;6163879;23;20382;-74
2022/07/02 07:13:22;;;;;;;3.10;1.40;;;22.00;71.10;;;;;;6188843;23;20410;-74
2022/07/02 07:15:48;;;;;;;5.00;2.53;;;22.00;71.90;;;;;;6215129;23;20352;-74
2022/07/02 07:18:14;;;;;;;6.93;1.90;;;22.00;71.00;;;;;;6213859;23;20426;-74
2022/07/02 07:20:40;;;;;;;4.13;2.27;;;22.00;70.90;;;;;;6214738;23;20370;-74
2022/07/02 07:23:10;;;;;;;6.03;1.90;;;22.00;70.90;;;;;;6214876;23;20397;-74
2022/07/02 07:25:36;;;;;;;8.37;1.90;;;22.10;71.10;;;;;;6188350;23;20415;-74
2022/07/02 07:28:03;;;;;;;5.00;1.93;;;22.10;71.00;;;;;;6214944;23;20525;-74
2022/07/02 07:30:29;;;;;;;6.57;1.80;;;22.00;70.90;;;;;;6163339;23;20518;-74
2022/07/02 07:32:56;;;;;;;2.13;1.90;;;22.00;70.90;;;;;;6188848;23;20550;-74
2022/07/02 07:35:22;;;;;;;5.00;1.80;;;22.10;71.00;;;;;;6215542;23;20367;-74
2022/07/02 07:37:57;;;;;;;3.60;1.60;;;22.10;70.90;;;;;;6214886;23;20403;-74
2022/07/02 07:40:26;;;;;;;6.47;2.40;;;22.10;70.90;;;;;;6163217;23;20415;-74
2022/07/02 07:42:57;;;;;;;3.10;1.67;;;22.10;71.00;;;;;;6163910;23;20879;-74
2022/07/02 07:45:23;;;;;;;2.00;1.40;;;22.10;70.90;;;;;;6188314;23;20417;-74
2022/07/02 07:47:51;;;;;;;2.73;1.77;;;22.20;71.00;;;;;;6163158;23;20470;-76
2022/07/02 07:50:17;;;;;;;2.57;1.73;;;22.20;71.00;;;;;;6188808;23;20402;-74
2022/07/02 07:52:43;;;;;;;3.23;1.87;;;22.20;70.80;;;;;;6189797;23;20406;-74
2022/07/02 07:55:09;;;;;;;2.00;1.30;;;22.20;70.80;;;;;;6189004;23;20389;-73
2022/07/02 07:57:37;;;;;;;5.33;1.97;;;22.20;70.70;;;;;;6189347;23;20396;-75
2022/07/02 08:00:07;;;;;;;2.93;1.90;;;22.30;70.80;;;;;;6187961;23;20392;-74
2022/07/02 08:02:40;;;;;;;3.37;1.70;;;22.20;70.70;;;;;;6189913;23;20695;-72
2022/07/02 08:05:09;;;;;;;1.97;1.80;;;22.30;70.80;;;;;;6189015;23;20893;-75
2022/07/02 08:07:41;;;;;;;3.67;1.63;;;22.30;70.80;;;;;;6215432;23;20391;-74
2022/07/02 08:10:11;;;;;;;3.10;1.80;;;22.30;70.70;;;;;;6188024;23;20395;-73
2022/07/02 08:12:41;;;;;;;3.27;1.60;;;22.40;70.80;;;;;;6214892;23;20375;-73
2022/07/02 08:15:08;;;;;;;3.87;1.90;;;22.40;70.70;;;;;;6188035;23;20451;-71
2022/07/02 08:17:36;;;;;;;4.00;1.67;;;22.40;70.70;;;;;;6187959;23;20490;-73
2022/07/02 08:20:05;;;;;;;6.87;3.40;;;22.40;70.60;;;;;;6188115;23;20446;-72
2022/07/02 08:22:32;;;;;;;8.07;2.00;;;22.40;70.40;;;;;;6214619;23;20450;-72
2022/07/02 08:25:00;;;;;;;38.43;7.17;;;22.50;69.80;;;;;;6187806;23;20437;-72
2022/07/02 08:27:28;;;;;;;27.43;5.57;;;22.50;69.60;;;;;;6187506;23;20391;-71
2022/07/02 08:29:57;;;;;;;17.97;5.50;;;22.60;69.70;;;;;;6187629;23;20491;-73
2022/07/02 08:32:23;;;;;;;16.93;4.10;;;22.60;69.70;;;;;;6212947;23;20411;-75
2022/07/02 08:34:51;;;;;;;14.00;4.30;;;22.70;69.60;;;;;;6163164;23;20403;-75
2022/07/02 08:37:17;;;;;;;15.23;3.90;;;22.70;69.50;;;;;;6214124;23;20419;-75
2022/07/02 08:39:43;;;;;;;13.57;3.93;;;22.70;69.40;;;;;;6138938;23;20422;-74
2022/07/02 08:42:32;;;;;;;11.07;3.43;;;22.70;69.30;;;;;;6187735;23;20364;-74
2022/07/02 08:45:03;;;;;;;8.60;3.40;;;22.80;69.20;;;;;;6187656;23;20991;-74
2022/07/02 08:47:31;;;;;;;6.30;2.67;;;22.80;69.10;;;;;;6138692;23;20731;-73
2022/07/02 08:50:00;;;;;;;5.63;2.90;;;22.80;69.00;;;;;;6214108;23;20445;-74
2022/07/02 08:52:27;;;;;;;8.60;3.10;;;22.80;68.80;;;;;;6214412;23;20442;-73
2022/07/02 08:54:55;;;;;;;4.43;2.67;;;22.80;68.70;;;;;;6188469;23;20383;-72
2022/07/02 08:57:50;;;;;;;8.30;2.80;;;22.90;68.80;;;;;;6188335;23;20370;-73
2022/07/02 09:00:22;;;;;;;8.40;2.40;;;22.90;68.80;;;;;;6188265;23;20471;-75
2022/07/02 09:02:56;;;;;;;4.83;1.90;;;22.90;68.80;;;;;;6163729;23;20436;-74
2022/07/02 09:05:27;;;;;;;6.80;2.40;;;22.90;69.60;;;;;;6213122;23;20430;-74
2022/07/02 09:07:57;;;;;;;9.60;2.13;;;23.00;68.80;;;;;;6187711;23;20453;-73
2022/07/02 09:10:27;;;;;;;7.60;2.83;;;23.00;68.70;;;;;;6214684;23;20433;-74
2022/07/02 09:12:54;;;;;;;3.90;2.07;;;23.00;68.50;;;;;;6187899;23;20743;-72
2022/07/02 09:15:23;;;;;;;3.37;1.93;;;23.00;68.30;;;;;;6214275;23;20364;-75
2022/07/02 09:17:52;;;;;;;2.90;1.80;;;23.10;68.30;;;;;;6211436;23;20376;-73
2022/07/02 09:20:20;;;;;;;8.80;2.17;;;23.10;68.00;;;;;;6212692;23;20380;-74
2022/07/02 09:22:52;;;;;;;6.90;1.93;;;23.10;68.00;;;;;;6213768;23;20847;-73
2022/07/02 09:25:20;;;;;;;4.03;2.20;;;23.10;67.90;;;;;;6215148;23;20489;-73
2022/07/02 09:27:58;;;;;;;4.20;1.70;;;23.20;67.80;;;;;;6215023;23;20387;-73
2022/07/02 09:30:24;;;;;;;2.13;1.50;;;23.20;67.70;;;;;;6139509;23;20764;-73
2022/07/02 09:33:28;;;;;;;4.20;1.90;;;23.20;67.60;;;;;;6163750;23;20395;-73
2022/07/02 09:35:37;;;;;;;4.47;1.50;;;23.30;67.70;;;;;;6213486;23;20752;-74
2022/07/02 09:38:11;;;;;;;4.37;1.73;;;23.30;67.70;;;;;;6213749;23;20882;-74
2022/07/02 09:40:50;;;;;;;4.37;1.90;;;23.40;67.70;;;;;;6162305;23;20971;-74
2022/07/02 09:43:27;;;;;;;4.50;1.93;;;23.40;67.60;;;;;;6138133;23;20795;-74
2022/07/02 09:45:55;;;;;;;2.70;1.60;;;23.40;67.60;;;;;;6163163;23;20379;-75
2022/07/02 09:48:23;;;;;;;2.70;1.53;;;23.40;67.30;;;;;;6187520;23;20391;-74
2022/07/02 09:50:49;;;;;;;2.80;1.57;;;23.50;67.10;;;;;;6215082;23;20384;-76
2022/07/02 09:53:18;;;;;;;2.60;1.70;;;23.50;66.80;;;;;;6164070;23;20356;-77
2022/07/02 09:55:50;;;;;;;2.00;1.20;;;23.50;66.20;;;;;;6214808;23;20760;-74
2022/07/02 09:58:28;;;;;;;3.37;1.53;;;23.60;66.00;;;;;;6162898;23;20407;-76
2022/07/02 10:00:59;;;;;;;2.20;1.30;;;23.60;65.90;;;;;;6162662;23;20410;-76
2022/07/02 10:03:28;;;;;;;1.90;1.50;;;23.60;65.60;;;;;;6213751;23;20359;-77
2022/07/02 10:05:57;;;;;;;1.93;1.20;;;23.70;65.70;;;;;;6187929;23;20391;-76
2022/07/02 10:08:27;;;;;;;1.67;1.40;;;23.70;65.30;;;;;;6188051;23;20407;-75
2022/07/02 10:10:54;;;;;;;2.67;1.43;;;23.80;65.20;;;;;;6186621;23;20490;-76
2022/07/02 10:13:23;;;;;;;2.40;1.53;;;23.80;65.00;;;;;;6212289;23;20986;-75
2022/07/02 10:16:02;;;;;;;1.50;1.20;;;23.80;64.80;;;;;;6187192;23;20370;-76
2022/07/02 10:18:29;;;;;;;1.20;1.10;;;23.90;64.40;;;;;;6211184;23;20422;-76
2022/07/02 10:20:56;;;;;;;1.63;1.50;;;23.90;64.30;;;;;;6187160;23;20390;-76
2022/07/02 10:23:25;;;;;;;3.10;1.77;;;23.90;64.20;;;;;;6187344;23;20379;-76
2022/07/02 10:25:52;;;;;;;2.63;1.37;;;24.00;64.40;;;;;;6213944;23;20512;-75
2022/07/02 10:28:18;;;;;;;2.30;1.30;;;24.10;64.60;;;;;;6187662;23;20866;-76
2022/07/02 10:30:44;;;;;;;1.50;1.40;;;24.10;64.60;;;;;;6187732;23;20415;-73
2022/07/02 10:34:05;;;;;;;1.80;1.10;;;24.20;64.60;;;;;;6215283;23;20395;-76
2022/07/02 10:36:36;;;;;;;2.03;1.20;;;24.20;64.50;;;;;;6093872;23;20758;-74
2022/07/02 10:39:07;;;;;;;5.90;1.37;;;24.20;64.50;;;;;;6243864;23;20494;-74
2022/07/02 10:41:33;;;;;;;1.97;1.10;;;24.30;64.60;;;;;;6245721;23;20707;-75
2022/07/02 10:44:04;;;;;;;1.83;1.33;;;24.30;64.00;;;;;;6218527;23;20426;-74
2022/07/02 10:46:35;;;;;;;3.10;1.37;;;24.40;64.10;;;;;;6218370;23;20741;-75
2022/07/02 10:49:03;;;;;;;1.40;1.00;;;24.40;63.80;;;;;;6168878;23;20430;-75
2022/07/02 10:51:34;;;;;;;1.33;1.10;;;24.40;63.50;;;;;;6217215;23;20740;-75
2022/07/02 10:54:06;;;;;;;2.60;1.30;;;24.50;63.60;;;;;;6244751;23;20375;-76
2022/07/02 10:56:49;;;;;;;2.10;1.20;;;24.50;63.50;;;;;;6245455;23;20366;-76
2022/07/02 10:59:34;;;;;;;2.20;1.27;;;24.60;63.40;;;;;;6245137;23;20455;-77
2022/07/02 11:02:08;;;;;;;1.60;1.10;;;24.60;63.10;;;;;;6219415;23;20849;-77
2022/07/02 11:04:36;;;;;;;2.30;1.33;;;24.60;63.00;;;;;;6218369;23;20456;-74
2022/07/02 11:07:13;;;;;;;2.60;1.30;;;24.70;63.00;;;;;;6243850;23;20966;-74
2022/07/02 11:10:03;;;;;;;2.20;1.30;;;24.70;62.40;;;;;;6243867;23;20410;-74
2022/07/02 11:12:47;;;;;;;3.40;1.50;;;24.70;62.40;;;;;;6245242;23;20720;-76
2022/07/02 11:15:25;;;;;;;1.50;1.40;;;24.80;62.30;;;;;;6245578;23;20724;-75
2022/07/02 11:17:52;;;;;;;2.50;1.17;;;24.80;62.00;;;;;;6218429;23;20367;-76
2022/07/02 11:20:35;;;;;;;2.60;1.30;;;24.90;62.30;;;;;;6193353;23;20404;-74
2022/07/02 11:23:01;;;;;;;1.20;1.10;;;24.90;62.10;;;;;;6193652;23;20426;-71
2022/07/02 11:25:31;;;;;;;5.13;1.40;;;25.00;62.00;;;;;;6193276;23;20438;-74
2022/07/02 11:28:00;;;;;;;1.43;1.33;;;25.00;61.80;;;;;;6192776;23;20398;-74
2022/07/02 11:30:31;;;;;;;2.17;1.30;;;25.00;62.00;;;;;;6243537;23;20398;-73
2022/07/02 11:33:00;;;;;;;1.27;1.17;;;25.10;62.30;;;;;;6192709;23;20392;-72
2022/07/02 11:35:29;;;;;;;1.10;1.00;;;25.10;62.20;;;;;;6244734;23;20852;-73
2022/07/02 11:37:56;;;;;;;3.67;1.13;;;25.20;62.30;;;;;;6244255;23;20912;-74
2022/07/02 11:40:24;;;;;;;1.40;1.10;;;25.20;62.40;;;;;;6193230;23;20373;-74
2022/07/02 11:42:50;;;;;;;3.10;1.20;;;25.20;63.20;;;;;;6218084;23;20420;-74
2022/07/02 11:45:21;;;;;;;1.30;1.20;;;25.20;62.40;;;;;;6217399;23;20977;-73
2022/07/02 11:47:49;;;;;;;1.67;1.10;;;25.30;62.30;;;;;;6192254;23;20884;-73
2022/07/02 11:50:31;;;;;;;2.70;1.20;;;25.30;62.00;;;;;;6244991;23;20355;-74
2022/07/02 11:53:02;;;;;;;1.10;1.00;;;25.40;62.00;;;;;;6218237;23;20784;-72
2022/07/02 11:55:28;;;;;;;1.50;1.10;;;25.40;62.10;;;;;;6244564;23;20458;-73
2022/07/02 11:57:54;;;;;;;1.37;1.07;;;25.50;62.00;;;;;;6243092;23;20999;-73
2022/07/02 12:00:30;;;;;;;1.70;1.07;;;25.50;61.60;;;;;;6192813;23;20472;-73
2022/07/02 12:02:56;;;;;;;1.20;1.10;;;25.50;61.20;;;;;;6219411;23;20422;-76
2022/07/02 12:05:25;;;;;;;3.57;1.07;;;25.60;61.40;;;;;;6194979;23;20751;-76
2022/07/02 12:07:53;;;;;;;1.67;1.27;;;25.60;61.10;;;;;;6246148;23;20452;-75
2022/07/02 12:10:26;;;;;;;3.63;1.50;;;25.70;60.70;;;;;;6244723;23;20406;-75
2022/07/02 12:12:56;;;;;;;1.03;1.00;;;25.70;60.30;;;;;;6246595;23;20387;-76
2022/07/02 12:15:24;;;;;;;1.50;1.17;;;25.70;60.50;;;;;;6218651;23;20361;-75
2022/07/02 12:17:56;;;;;;;1.10;1.00;;;25.80;60.90;;;;;;6161189;22;20511;-74
2022/07/02 12:20:22;;;;;;;1.57;1.00;;;25.80;61.00;;;;;;6274208;22;20405;-73
2022/07/02 12:22:54;;;;;;;1.13;1.00;;;25.80;61.20;;;;;;6222559;22;20389;-75
2022/07/02 12:25:22;;;;;;;1.23;1.00;;;25.90;61.40;;;;;;6274901;22;20728;-72
2022/07/02 12:27:55;;;;;;;1.10;1.00;;;25.90;61.20;;;;;;6247362;22;20397;-74
2022/07/02 12:30:24;;;;;;;2.43;1.00;;;25.90;61.30;;;;;;6273755;22;20450;-72
2022/07/02 12:32:53;;;;;;;1.43;1.17;;;25.90;61.40;;;;;;6247794;22;20406;-72
2022/07/02 12:35:22;;;;;;;1.07;0.93;;;26.00;61.50;;;;;;6275075;22;20362;-72
2022/07/02 12:37:57;;;;;;;1.23;1.07;;;26.00;61.50;;;;;;6271395;22;20398;-75
2022/07/02 12:40:26;;;;;;;2.57;1.20;;;26.10;61.50;;;;;;6247876;22;20381;-72
2022/07/02 12:42:54;;;;;;;2.70;1.00;;;26.10;61.50;;;;;;6273015;22;20388;-73
2022/07/02 12:45:26;;;;;;;1.33;1.10;;;26.10;61.30;;;;;;6274448;22;20425;-72
2022/07/02 12:48:19;;;;;;;1.23;1.00;;;26.20;61.40;;;;;;6247265;22;20890;-73
2022/07/02 12:50:48;;;;;;;1.23;1.10;;;26.20;61.50;;;;;;6269289;22;20808;-72
2022/07/02 12:53:16;;;;;;;1.57;1.20;;;26.20;61.30;;;;;;6247875;22;20372;-73
2022/07/02 12:55:54;;;;;;;1.17;1.07;;;26.20;61.30;;;;;;6274707;22;20369;-74
2022/07/02 12:58:25;;;;;;;1.30;1.20;;;26.30;61.50;;;;;;6274075;22;20413;-76
2022/07/02 13:00:52;;;;;;;1.17;0.90;;;26.30;61.40;;;;;;6275118;22;20394;-76